sensor_id;sensor_type;location;lat;lon;timestamp;temperature;humidity
17172;DHT22;8701;50.150;8.756;2023-05-08T00:00:25;16.90;99.90
17172;DHT22;8701;50.150;8.756;2023-05-08T00:04:27;16.90;99.90
17172;DHT22;8701;50.150;8.756;2023-05-08T00:08:29;16.90;99.90
17172;DHT22;8701;50.150;8.756;2023-05-08T00:12:33;16.80;99.90
17172;DHT22;8701;50.150;8.756;2023-05-08T00:16:35;16.80;99.90
17172;DHT22;8701;50.150;8.756;2023-05-08T00:20:38;16.80;99.90
17172;DHT22;8701;50.150;8.756;2023-05-08T00:24:40;16.70;99.90
17172;DHT22;8701;50.150;8.756;2023-05-08T00:28:43;16.70;99.90
17172;DHT22;8701;50.150;8.756;2023-05-08T00:32:46;16.70;99.90
17172;DHT22;8701;50.150;8.756;2023-05-08T00:36:48;16.60;99.90
17172;DHT22;8701;50.150;8.756;2023-05-08T00:40:50;16.60;99.90
17172;DHT22;8701;50.150;8.756;2023-05-08T00:44:54;16.50;99.90
17172;DHT22;8701;50.150;8.756;2023-05-08T00:48:56;16.60;99.90
17172;DHT22;8701;50.150;8.756;2023-05-08T00:52:59;16.50;99.90
17172;DHT22;8701;50.150;8.756;2023-05-08T00:57:05;16.50;99.90
17172;DHT22;8701;50.150;8.756;2023-05-08T01:01:09;16.50;99.90
17172;DHT22;8701;50.150;8.756;2023-05-08T01:05:12;16.50;99.90
17172;DHT22;8701;50.150;8.756;2023-05-08T01:09:14;16.50;99.90
17172;DHT22;8701;50.150;8.756;2023-05-08T01:13:22;16.50;99.90
17172;DHT22;8701;50.150;8.756;2023-05-08T01:17:35;16.40;99.90
17172;DHT22;8701;50.150;8.756;2023-05-08T01:21:48;16.40;99.90
17172;DHT22;8701;50.150;8.756;2023-05-08T01:26:28;16.40;99.90
17172;DHT22;8701;50.150;8.756;2023-05-08T01:30:58;16.30;99.90
17172;DHT22;8701;50.150;8.756;2023-05-08T01:35:11;16.30;99.90
17172;DHT22;8701;50.150;8.756;2023-05-08T01:39:21;16.30;99.90
17172;DHT22;8701;50.150;8.756;2023-05-08T01:43:30;16.30;99.90
17172;DHT22;8701;50.150;8.756;2023-05-08T01:47:36;16.30;99.90
17172;DHT22;8701;50.150;8.756;2023-05-08T01:51:43;16.30;99.90
17172;DHT22;8701;50.150;8.756;2023-05-08T01:55:48;16.30;99.90
17172;DHT22;8701;50.150;8.756;2023-05-08T01:59:52;16.30;99.90
17172;DHT22;8701;50.150;8.756;2023-05-08T02:03:56;16.20;99.90
17172;DHT22;8701;50.150;8.756;2023-05-08T02:08:02;16.20;99.90
17172;DHT22;8701;50.150;8.756;2023-05-08T02:12:06;16.20;99.90
17172;DHT22;8701;50.150;8.756;2023-05-08T02:16:10;16.20;99.90
17172;DHT22;8701;50.150;8.756;2023-05-08T02:20:13;16.30;99.90
17172;DHT22;8701;50.150;8.756;2023-05-08T02:24:18;16.10;99.90
17172;DHT22;8701;50.150;8.756;2023-05-08T02:28:22;16.20;99.90
17172;DHT22;8701;50.150;8.756;2023-05-08T02:32:26;16.10;99.90
17172;DHT22;8701;50.150;8.756;2023-05-08T02:36:29;16.10;99.90
17172;DHT22;8701;50.150;8.756;2023-05-08T02:40:34;16.10;99.90
17172;DHT22;8701;50.150;8.756;2023-05-08T02:44:36;16.00;99.90
17172;DHT22;8701;50.150;8.756;2023-05-08T02:48:46;16.00;99.90
17172;DHT22;8701;50.150;8.756;2023-05-08T02:52:57;15.90;99.90
17172;DHT22;8701;50.150;8.756;2023-05-08T02:57:12;15.90;99.90
17172;DHT22;8701;50.150;8.756;2023-05-08T03:01:22;15.90;99.90
17172;DHT22;8701;50.150;8.756;2023-05-08T03:05:32;15.80;99.90
17172;DHT22;8701;50.150;8.756;2023-05-08T03:09:40;15.80;99.90
17172;DHT22;8701;50.150;8.756;2023-05-08T03:13:46;15.80;99.90
17172;DHT22;8701;50.150;8.756;2023-05-08T03:17:52;15.80;99.90
17172;DHT22;8701;50.150;8.756;2023-05-08T03:21:57;15.80;99.90
17172;DHT22;8701;50.150;8.756;2023-05-08T03:26:02;15.70;99.90
17172;DHT22;8701;50.150;8.756;2023-05-08T03:30:08;15.70;99.90
17172;DHT22;8701;50.150;8.756;2023-05-08T03:34:14;15.70;99.90
17172;DHT22;8701;50.150;8.756;2023-05-08T03:38:18;15.60;99.90
17172;DHT22;8701;50.150;8.756;2023-05-08T03:42:22;15.60;99.90
17172;DHT22;8701;50.150;8.756;2023-05-08T03:46:26;15.60;99.90
17172;DHT22;8701;50.150;8.756;2023-05-08T03:50:30;15.60;99.90
17172;DHT22;8701;50.150;8.756;2023-05-08T03:54:33;15.60;99.90
17172;DHT22;8701;50.150;8.756;2023-05-08T03:58:39;15.50;99.90
17172;DHT22;8701;50.150;8.756;2023-05-08T04:02:48;15.50;99.90
17172;DHT22;8701;50.150;8.756;2023-05-08T04:06:58;15.50;99.90
17172;DHT22;8701;50.150;8.756;2023-05-08T04:11:18;15.50;99.90
17172;DHT22;8701;50.150;8.756;2023-05-08T04:15:27;15.40;99.90
17172;DHT22;8701;50.150;8.756;2023-05-08T04:19:37;15.40;99.90
17172;DHT22;8701;50.150;8.756;2023-05-08T04:23:41;15.40;99.90
17172;DHT22;8701;50.150;8.756;2023-05-08T04:27:45;15.40;99.90
17172;DHT22;8701;50.150;8.756;2023-05-08T04:31:49;15.40;99.90
17172;DHT22;8701;50.150;8.756;2023-05-08T04:35:53;15.30;99.90
17172;DHT22;8701;50.150;8.756;2023-05-08T04:39:57;15.30;99.90
17172;DHT22;8701;50.150;8.756;2023-05-08T04:44:00;15.30;99.90
17172;DHT22;8701;50.150;8.756;2023-05-08T04:48:04;15.30;99.90
17172;DHT22;8701;50.150;8.756;2023-05-08T04:52:08;15.30;99.90
17172;DHT22;8701;50.150;8.756;2023-05-08T04:56:11;15.30;99.90
17172;DHT22;8701;50.150;8.756;2023-05-08T05:00:14;15.30;99.90
17172;DHT22;8701;50.150;8.756;2023-05-08T05:04:18;15.20;99.90
17172;DHT22;8701;50.150;8.756;2023-05-08T05:08:21;15.30;99.90
17172;DHT22;8701;50.150;8.756;2023-05-08T05:12:24;15.30;99.90
17172;DHT22;8701;50.150;8.756;2023-05-08T05:16:26;15.30;99.90
17172;DHT22;8701;50.150;8.756;2023-05-08T05:20:29;15.30;99.90
17172;DHT22;8701;50.150;8.756;2023-05-08T05:24:33;15.30;99.90
17172;DHT22;8701;50.150;8.756;2023-05-08T05:28:36;15.20;99.90
17172;DHT22;8701;50.150;8.756;2023-05-08T05:32:38;15.20;99.90
17172;DHT22;8701;50.150;8.756;2023-05-08T05:36:41;15.20;99.90
17172;DHT22;8701;50.150;8.756;2023-05-08T05:40:45;15.20;99.90
17172;DHT22;8701;50.150;8.756;2023-05-08T05:44:48;15.20;99.90
17172;DHT22;8701;50.150;8.756;2023-05-08T05:48:51;15.20;99.90
17172;DHT22;8701;50.150;8.756;2023-05-08T05:52:57;15.20;99.90
17172;DHT22;8701;50.150;8.756;2023-05-08T05:57:02;15.20;99.90
17172;DHT22;8701;50.150;8.756;2023-05-08T06:01:04;15.20;99.90
17172;DHT22;8701;50.150;8.756;2023-05-08T06:05:08;15.20;99.90
17172;DHT22;8701;50.150;8.756;2023-05-08T06:09:10;15.20;99.90
17172;DHT22;8701;50.150;8.756;2023-05-08T06:13:14;15.20;99.90
17172;DHT22;8701;50.150;8.756;2023-05-08T06:17:16;15.20;99.90
17172;DHT22;8701;50.150;8.756;2023-05-08T06:21:20;15.20;99.90
17172;DHT22;8701;50.150;8.756;2023-05-08T06:25:22;15.20;99.90
17172;DHT22;8701;50.150;8.756;2023-05-08T06:29:26;15.20;99.90
17172;DHT22;8701;50.150;8.756;2023-05-08T06:33:28;15.20;99.90
17172;DHT22;8701;50.150;8.756;2023-05-08T06:37:31;15.10;99.90
17172;DHT22;8701;50.150;8.756;2023-05-08T06:41:33;15.10;99.90
17172;DHT22;8701;50.150;8.756;2023-05-08T06:45:37;15.10;99.90
17172;DHT22;8701;50.150;8.756;2023-05-08T06:49:39;15.10;99.90
17172;DHT22;8701;50.150;8.756;2023-05-08T06:53:42;15.10;99.90
17172;DHT22;8701;50.150;8.756;2023-05-08T06:57:44;15.10;99.90
17172;DHT22;8701;50.150;8.756;2023-05-08T07:01:47;15.20;99.90
17172;DHT22;8701;50.150;8.756;2023-05-08T07:05:50;15.20;99.90
17172;DHT22;8701;50.150;8.756;2023-05-08T07:09:52;15.30;99.90
17172;DHT22;8701;50.150;8.756;2023-05-08T07:13:55;15.20;99.90
17172;DHT22;8701;50.150;8.756;2023-05-08T07:17:59;15.30;99.90
17172;DHT22;8701;50.150;8.756;2023-05-08T07:22:01;15.40;99.90
17172;DHT22;8701;50.150;8.756;2023-05-08T07:26:03;15.40;99.90
17172;DHT22;8701;50.150;8.756;2023-05-08T07:30:07;15.50;99.90
17172;DHT22;8701;50.150;8.756;2023-05-08T07:34:10;15.50;99.90
17172;DHT22;8701;50.150;8.756;2023-05-08T07:38:13;15.60;99.90
17172;DHT22;8701;50.150;8.756;2023-05-08T07:42:15;15.70;99.90
17172;DHT22;8701;50.150;8.756;2023-05-08T07:46:18;15.60;99.90
17172;DHT22;8701;50.150;8.756;2023-05-08T07:50:22;15.60;99.90
17172;DHT22;8701;50.150;8.756;2023-05-08T07:54:25;15.60;99.90
17172;DHT22;8701;50.150;8.756;2023-05-08T07:58:27;15.70;99.90
17172;DHT22;8701;50.150;8.756;2023-05-08T08:02:29;15.70;99.90
17172;DHT22;8701;50.150;8.756;2023-05-08T08:06:33;15.80;99.90
17172;DHT22;8701;50.150;8.756;2023-05-08T08:10:35;15.90;99.90
17172;DHT22;8701;50.150;8.756;2023-05-08T08:14:38;15.90;99.90
17172;DHT22;8701;50.150;8.756;2023-05-08T08:18:40;15.90;99.90
17172;DHT22;8701;50.150;8.756;2023-05-08T08:22:43;15.90;99.90
17172;DHT22;8701;50.150;8.756;2023-05-08T08:26:45;16.00;99.90
17172;DHT22;8701;50.150;8.756;2023-05-08T08:30:48;16.00;99.90
17172;DHT22;8701;50.150;8.756;2023-05-08T08:34:50;16.10;99.90
17172;DHT22;8701;50.150;8.756;2023-05-08T08:38:54;16.20;99.90
17172;DHT22;8701;50.150;8.756;2023-05-08T08:42:56;16.30;99.90
17172;DHT22;8701;50.150;8.756;2023-05-08T08:46:59;16.30;99.90
17172;DHT22;8701;50.150;8.756;2023-05-08T08:51:05;16.40;99.90
17172;DHT22;8701;50.150;8.756;2023-05-08T08:55:14;16.50;99.90
17172;DHT22;8701;50.150;8.756;2023-05-08T08:59:17;16.60;99.90
17172;DHT22;8701;50.150;8.756;2023-05-08T09:03:20;16.70;99.90
17172;DHT22;8701;50.150;8.756;2023-05-08T09:07:22;16.70;99.90
17172;DHT22;8701;50.150;8.756;2023-05-08T09:11:26;16.70;99.90
17172;DHT22;8701;50.150;8.756;2023-05-08T09:15:30;16.80;99.90
17172;DHT22;8701;50.150;8.756;2023-05-08T09:19:32;16.80;99.90
17172;DHT22;8701;50.150;8.756;2023-05-08T09:23:35;16.80;99.90
17172;DHT22;8701;50.150;8.756;2023-05-08T09:27:39;16.80;99.90
17172;DHT22;8701;50.150;8.756;2023-05-08T09:31:42;16.80;99.90
17172;DHT22;8701;50.150;8.756;2023-05-08T09:35:44;16.70;99.90
17172;DHT22;8701;50.150;8.756;2023-05-08T09:39:48;16.70;99.90
17172;DHT22;8701;50.150;8.756;2023-05-08T09:44:01;16.70;99.90
17172;DHT22;8701;50.150;8.756;2023-05-08T09:48:04;16.70;99.90
17172;DHT22;8701;50.150;8.756;2023-05-08T09:52:06;16.70;99.90
17172;DHT22;8701;50.150;8.756;2023-05-08T09:56:08;16.70;99.90
17172;DHT22;8701;50.150;8.756;2023-05-08T10:00:13;16.70;99.90
17172;DHT22;8701;50.150;8.756;2023-05-08T10:04:15;16.70;99.90
17172;DHT22;8701;50.150;8.756;2023-05-08T10:08:19;16.80;99.90
17172;DHT22;8701;50.150;8.756;2023-05-08T10:12:22;16.90;99.90
17172;DHT22;8701;50.150;8.756;2023-05-08T10:16:28;16.90;99.90
17172;DHT22;8701;50.150;8.756;2023-05-08T10:20:32;17.00;99.90
17172;DHT22;8701;50.150;8.756;2023-05-08T10:24:37;17.00;99.90
17172;DHT22;8701;50.150;8.756;2023-05-08T10:28:43;17.10;99.90
17172;DHT22;8701;50.150;8.756;2023-05-08T10:32:51;17.10;99.90
17172;DHT22;8701;50.150;8.756;2023-05-08T10:36:55;17.20;99.90
17172;DHT22;8701;50.150;8.756;2023-05-08T10:40:59;17.20;99.90
17172;DHT22;8701;50.150;8.756;2023-05-08T10:45:03;17.30;99.90
17172;DHT22;8701;50.150;8.756;2023-05-08T10:49:13;17.40;99.90
17172;DHT22;8701;50.150;8.756;2023-05-08T10:53:21;17.40;99.90
17172;DHT22;8701;50.150;8.756;2023-05-08T10:57:26;17.40;99.90
17172;DHT22;8701;50.150;8.756;2023-05-08T11:01:28;17.40;99.90
17172;DHT22;8701;50.150;8.756;2023-05-08T11:05:44;17.50;99.90
17172;DHT22;8701;50.150;8.756;2023-05-08T11:09:47;17.50;99.90
17172;DHT22;8701;50.150;8.756;2023-05-08T11:13:52;17.70;99.90
17172;DHT22;8701;50.150;8.756;2023-05-08T11:17:56;17.90;99.90
17172;DHT22;8701;50.150;8.756;2023-05-08T11:22:19;18.20;99.90
17172;DHT22;8701;50.150;8.756;2023-05-08T11:26:37;18.50;99.90
17172;DHT22;8701;50.150;8.756;2023-05-08T11:30:39;18.80;99.90
17172;DHT22;8701;50.150;8.756;2023-05-08T11:34:45;19.00;99.90
17172;DHT22;8701;50.150;8.756;2023-05-08T11:39:05;19.20;99.90
17172;DHT22;8701;50.150;8.756;2023-05-08T11:43:19;19.80;99.90
17172;DHT22;8701;50.150;8.756;2023-05-08T11:47:31;20.20;99.90
17172;DHT22;8701;50.150;8.756;2023-05-08T11:51:36;20.20;99.90
17172;DHT22;8701;50.150;8.756;2023-05-08T11:55:40;20.30;99.90
17172;DHT22;8701;50.150;8.756;2023-05-08T11:59:42;20.50;99.90
17172;DHT22;8701;50.150;8.756;2023-05-08T12:03:44;20.70;99.90
17172;DHT22;8701;50.150;8.756;2023-05-08T12:07:47;20.80;99.90
17172;DHT22;8701;50.150;8.756;2023-05-08T12:11:56;21.10;99.90
17172;DHT22;8701;50.150;8.756;2023-05-08T12:15:59;21.10;99.90
17172;DHT22;8701;50.150;8.756;2023-05-08T12:20:09;21.20;99.90
17172;DHT22;8701;50.150;8.756;2023-05-08T12:24:12;21.30;99.90
17172;DHT22;8701;50.150;8.756;2023-05-08T12:28:16;21.40;99.90
17172;DHT22;8701;50.150;8.756;2023-05-08T12:32:18;21.50;99.90
17172;DHT22;8701;50.150;8.756;2023-05-08T12:36:20;21.50;99.90
17172;DHT22;8701;50.150;8.756;2023-05-08T12:40:27;21.50;99.90
17172;DHT22;8701;50.150;8.756;2023-05-08T12:44:31;21.70;99.90
17172;DHT22;8701;50.150;8.756;2023-05-08T12:48:33;22.10;99.90
17172;DHT22;8701;50.150;8.756;2023-05-08T12:52:35;22.30;99.90
17172;DHT22;8701;50.150;8.756;2023-05-08T12:56:41;22.30;99.90
17172;DHT22;8701;50.150;8.756;2023-05-08T13:00:46;22.10;99.90
17172;DHT22;8701;50.150;8.756;2023-05-08T13:04:53;22.10;99.90
17172;DHT22;8701;50.150;8.756;2023-05-08T13:08:56;22.20;99.90
17172;DHT22;8701;50.150;8.756;2023-05-08T13:12:58;22.30;99.90
17172;DHT22;8701;50.150;8.756;2023-05-08T13:17:02;22.40;99.90
17172;DHT22;8701;50.150;8.756;2023-05-08T13:21:04;22.70;99.90
17172;DHT22;8701;50.150;8.756;2023-05-08T13:25:07;23.00;99.90
17172;DHT22;8701;50.150;8.756;2023-05-08T13:29:10;23.10;99.90
17172;DHT22;8701;50.150;8.756;2023-05-08T13:33:13;23.40;99.90
17172;DHT22;8701;50.150;8.756;2023-05-08T13:37:15;23.40;99.90
17172;DHT22;8701;50.150;8.756;2023-05-08T13:41:18;23.50;99.90
17172;DHT22;8701;50.150;8.756;2023-05-08T13:45:21;23.50;99.90
17172;DHT22;8701;50.150;8.756;2023-05-08T13:49:24;23.20;99.90
17172;DHT22;8701;50.150;8.756;2023-05-08T13:53:27;22.90;99.90
17172;DHT22;8701;50.150;8.756;2023-05-08T13:57:29;22.50;99.90
17172;DHT22;8701;50.150;8.756;2023-05-08T14:01:31;22.40;99.90
17172;DHT22;8701;50.150;8.756;2023-05-08T14:05:35;22.30;99.90
17172;DHT22;8701;50.150;8.756;2023-05-08T14:09:37;22.30;99.90
17172;DHT22;8701;50.150;8.756;2023-05-08T14:13:39;22.30;99.90
17172;DHT22;8701;50.150;8.756;2023-05-08T14:17:41;22.20;99.90
17172;DHT22;8701;50.150;8.756;2023-05-08T14:21:45;22.10;99.90
17172;DHT22;8701;50.150;8.756;2023-05-08T14:25:47;22.10;99.90
17172;DHT22;8701;50.150;8.756;2023-05-08T14:29:49;21.90;99.90
17172;DHT22;8701;50.150;8.756;2023-05-08T14:33:53;21.90;99.90
17172;DHT22;8701;50.150;8.756;2023-05-08T14:37:56;21.80;99.90
17172;DHT22;8701;50.150;8.756;2023-05-08T14:42:00;21.60;99.90
17172;DHT22;8701;50.150;8.756;2023-05-08T14:46:02;21.60;99.90
17172;DHT22;8701;50.150;8.756;2023-05-08T14:50:05;21.50;99.90
17172;DHT22;8701;50.150;8.756;2023-05-08T14:54:09;21.40;99.90
17172;DHT22;8701;50.150;8.756;2023-05-08T14:58:11;21.50;99.90
17172;DHT22;8701;50.150;8.756;2023-05-08T15:02:13;21.60;99.90
17172;DHT22;8701;50.150;8.756;2023-05-08T15:06:16;21.70;99.90
17172;DHT22;8701;50.150;8.756;2023-05-08T15:10:20;21.80;99.90
17172;DHT22;8701;50.150;8.756;2023-05-08T15:14:22;21.90;99.90
17172;DHT22;8701;50.150;8.756;2023-05-08T15:18:25;22.10;99.90
17172;DHT22;8701;50.150;8.756;2023-05-08T15:22:28;22.10;99.90
17172;DHT22;8701;50.150;8.756;2023-05-08T15:26:31;21.90;99.90
17172;DHT22;8701;50.150;8.756;2023-05-08T15:30:34;21.60;99.90
17172;DHT22;8701;50.150;8.756;2023-05-08T15:34:36;21.60;99.90
17172;DHT22;8701;50.150;8.756;2023-05-08T15:38:38;21.60;99.90
17172;DHT22;8701;50.150;8.756;2023-05-08T15:42:42;21.40;99.90
17172;DHT22;8701;50.150;8.756;2023-05-08T15:46:44;21.20;99.90
17172;DHT22;8701;50.150;8.756;2023-05-08T15:50:46;21.10;99.90
17172;DHT22;8701;50.150;8.756;2023-05-08T15:54:48;20.90;99.90
17172;DHT22;8701;50.150;8.756;2023-05-08T15:58:52;20.70;99.90
17172;DHT22;8701;50.150;8.756;2023-05-08T16:02:55;20.60;99.90
17172;DHT22;8701;50.150;8.756;2023-05-08T16:06:57;20.30;99.90
17172;DHT22;8701;50.150;8.756;2023-05-08T16:11:00;20.20;99.90
17172;DHT22;8701;50.150;8.756;2023-05-08T16:15:04;20.10;99.90
17172;DHT22;8701;50.150;8.756;2023-05-08T16:19:07;20.00;99.90
17172;DHT22;8701;50.150;8.756;2023-05-08T16:23:09;19.90;99.90
17172;DHT22;8701;50.150;8.756;2023-05-08T16:27:11;19.90;99.90
17172;DHT22;8701;50.150;8.756;2023-05-08T16:31:15;19.80;99.90
17172;DHT22;8701;50.150;8.756;2023-05-08T16:35:17;19.60;99.90
17172;DHT22;8701;50.150;8.756;2023-05-08T16:39:19;19.50;99.90
17172;DHT22;8701;50.150;8.756;2023-05-08T16:43:21;19.50;99.90
17172;DHT22;8701;50.150;8.756;2023-05-08T16:47:25;19.40;99.90
17172;DHT22;8701;50.150;8.756;2023-05-08T16:51:27;19.40;99.90
17172;DHT22;8701;50.150;8.756;2023-05-08T16:55:29;19.40;99.90
17172;DHT22;8701;50.150;8.756;2023-05-08T16:59:31;19.40;99.90
17172;DHT22;8701;50.150;8.756;2023-05-08T17:03:35;19.30;99.90
17172;DHT22;8701;50.150;8.756;2023-05-08T17:07:37;19.20;99.90
17172;DHT22;8701;50.150;8.756;2023-05-08T17:11:40;19.20;99.90
17172;DHT22;8701;50.150;8.756;2023-05-08T17:15:42;19.20;99.90
17172;DHT22;8701;50.150;8.756;2023-05-08T17:19:46;19.20;99.90
17172;DHT22;8701;50.150;8.756;2023-05-08T17:23:48;19.20;99.90
17172;DHT22;8701;50.150;8.756;2023-05-08T17:27:50;19.10;99.90
17172;DHT22;8701;50.150;8.756;2023-05-08T17:31:52;19.10;99.90
17172;DHT22;8701;50.150;8.756;2023-05-08T17:35:56;19.10;99.90
17172;DHT22;8701;50.150;8.756;2023-05-08T17:39:58;19.10;99.90
17172;DHT22;8701;50.150;8.756;2023-05-08T17:44:00;19.10;99.90
17172;DHT22;8701;50.150;8.756;2023-05-08T17:48:04;19.00;99.90
17172;DHT22;8701;50.150;8.756;2023-05-08T17:52:08;19.00;99.90
17172;DHT22;8701;50.150;8.756;2023-05-08T17:56:10;18.90;99.90
17172;DHT22;8701;50.150;8.756;2023-05-08T18:00:13;18.90;99.90
17172;DHT22;8701;50.150;8.756;2023-05-08T18:04:16;18.80;99.90
17172;DHT22;8701;50.150;8.756;2023-05-08T18:08:20;18.80;99.90
17172;DHT22;8701;50.150;8.756;2023-05-08T18:12:22;18.70;99.90
17172;DHT22;8701;50.150;8.756;2023-05-08T18:16:24;18.60;99.90
17172;DHT22;8701;50.150;8.756;2023-05-08T18:20:26;18.60;99.90
17172;DHT22;8701;50.150;8.756;2023-05-08T18:24:30;18.50;99.90
17172;DHT22;8701;50.150;8.756;2023-05-08T18:28:32;18.50;99.90
17172;DHT22;8701;50.150;8.756;2023-05-08T18:32:35;18.40;99.90
17172;DHT22;8701;50.150;8.756;2023-05-08T18:36:38;18.40;99.90
17172;DHT22;8701;50.150;8.756;2023-05-08T18:40:41;18.40;99.90
17172;DHT22;8701;50.150;8.756;2023-05-08T18:44:43;18.30;99.90
17172;DHT22;8701;50.150;8.756;2023-05-08T18:48:46;18.30;99.90
17172;DHT22;8701;50.150;8.756;2023-05-08T18:52:48;18.30;99.90
17172;DHT22;8701;50.150;8.756;2023-05-08T18:56:52;18.20;99.90
17172;DHT22;8701;50.150;8.756;2023-05-08T19:00:54;18.20;99.90
17172;DHT22;8701;50.150;8.756;2023-05-08T19:04:57;18.20;99.90
17172;DHT22;8701;50.150;8.756;2023-05-08T19:08:59;18.10;99.90
17172;DHT22;8701;50.150;8.756;2023-05-08T19:13:03;18.10;99.90
17172;DHT22;8701;50.150;8.756;2023-05-08T19:17:05;18.10;99.90
17172;DHT22;8701;50.150;8.756;2023-05-08T19:21:07;18.10;99.90
17172;DHT22;8701;50.150;8.756;2023-05-08T19:25:09;18.00;99.90
17172;DHT22;8701;50.150;8.756;2023-05-08T19:29:13;18.00;99.90
17172;DHT22;8701;50.150;8.756;2023-05-08T19:33:16;18.00;99.90
17172;DHT22;8701;50.150;8.756;2023-05-08T19:37:20;18.00;99.90
17172;DHT22;8701;50.150;8.756;2023-05-08T19:41:22;18.00;99.90
17172;DHT22;8701;50.150;8.756;2023-05-08T19:45:26;17.90;99.90
17172;DHT22;8701;50.150;8.756;2023-05-08T19:49:28;17.90;99.90
17172;DHT22;8701;50.150;8.756;2023-05-08T19:53:30;17.90;99.90
17172;DHT22;8701;50.150;8.756;2023-05-08T19:57:33;17.90;99.90
17172;DHT22;8701;50.150;8.756;2023-05-08T20:01:36;17.80;99.90
17172;DHT22;8701;50.150;8.756;2023-05-08T20:05:38;17.80;99.90
17172;DHT22;8701;50.150;8.756;2023-05-08T20:09:40;17.80;99.90
17172;DHT22;8701;50.150;8.756;2023-05-08T20:13:43;17.80;99.90
17172;DHT22;8701;50.150;8.756;2023-05-08T20:17:46;17.70;99.90
17172;DHT22;8701;50.150;8.756;2023-05-08T20:21:48;17.60;99.90
17172;DHT22;8701;50.150;8.756;2023-05-08T20:25:50;17.50;99.90
17172;DHT22;8701;50.150;8.756;2023-05-08T20:29:54;17.50;99.90
17172;DHT22;8701;50.150;8.756;2023-05-08T20:33:57;17.40;99.90
17172;DHT22;8701;50.150;8.756;2023-05-08T20:38:00;17.40;99.90
17172;DHT22;8701;50.150;8.756;2023-05-08T20:42:02;17.30;99.90
17172;DHT22;8701;50.150;8.756;2023-05-08T20:46:04;17.30;99.90
17172;DHT22;8701;50.150;8.756;2023-05-08T20:50:08;17.30;99.90
17172;DHT22;8701;50.150;8.756;2023-05-08T20:54:11;17.20;99.90
17172;DHT22;8701;50.150;8.756;2023-05-08T20:58:13;17.20;99.90
17172;DHT22;8701;50.150;8.756;2023-05-08T21:02:15;17.10;99.90
17172;DHT22;8701;50.150;8.756;2023-05-08T21:06:19;17.10;99.90
17172;DHT22;8701;50.150;8.756;2023-05-08T21:10:21;17.10;99.90
17172;DHT22;8701;50.150;8.756;2023-05-08T21:14:25;17.10;99.90
17172;DHT22;8701;50.150;8.756;2023-05-08T21:18:27;17.10;99.90
17172;DHT22;8701;50.150;8.756;2023-05-08T21:22:32;17.00;99.90
17172;DHT22;8701;50.150;8.756;2023-05-08T21:26:48;17.00;99.90
17172;DHT22;8701;50.150;8.756;2023-05-08T21:30:50;17.00;99.90
17172;DHT22;8701;50.150;8.756;2023-05-08T21:34:52;17.00;99.90
17172;DHT22;8701;50.150;8.756;2023-05-08T21:38:57;17.00;99.90
17172;DHT22;8701;50.150;8.756;2023-05-08T21:42:59;16.90;99.90
17172;DHT22;8701;50.150;8.756;2023-05-08T21:47:01;16.90;99.90
17172;DHT22;8701;50.150;8.756;2023-05-08T21:51:04;16.90;99.90
17172;DHT22;8701;50.150;8.756;2023-05-08T21:55:09;16.90;99.90
17172;DHT22;8701;50.150;8.756;2023-05-08T21:59:11;17.00;99.90
17172;DHT22;8701;50.150;8.756;2023-05-08T22:03:13;16.90;99.90
17172;DHT22;8701;50.150;8.756;2023-05-08T22:07:15;16.90;99.90
17172;DHT22;8701;50.150;8.756;2023-05-08T22:11:20;16.90;99.90
17172;DHT22;8701;50.150;8.756;2023-05-08T22:15:22;16.90;99.90
17172;DHT22;8701;50.150;8.756;2023-05-08T22:19:25;16.90;99.90
17172;DHT22;8701;50.150;8.756;2023-05-08T22:23:28;16.80;99.90
17172;DHT22;8701;50.150;8.756;2023-05-08T22:27:31;16.80;99.90
17172;DHT22;8701;50.150;8.756;2023-05-08T22:31:33;16.80;99.90
17172;DHT22;8701;50.150;8.756;2023-05-08T22:35:36;16.70;99.90
17172;DHT22;8701;50.150;8.756;2023-05-08T22:39:38;16.70;99.90
17172;DHT22;8701;50.150;8.756;2023-05-08T22:43:41;16.70;99.90
17172;DHT22;8701;50.150;8.756;2023-05-08T22:47:44;16.70;99.90
17172;DHT22;8701;50.150;8.756;2023-05-08T22:51:47;16.60;99.90
17172;DHT22;8701;50.150;8.756;2023-05-08T22:55:50;16.60;99.90
17172;DHT22;8701;50.150;8.756;2023-05-08T22:59:54;16.60;99.90
17172;DHT22;8701;50.150;8.756;2023-05-08T23:03:56;16.60;99.90
17172;DHT22;8701;50.150;8.756;2023-05-08T23:07:58;16.50;99.90
17172;DHT22;8701;50.150;8.756;2023-05-08T23:12:00;16.60;99.90
17172;DHT22;8701;50.150;8.756;2023-05-08T23:16:04;16.60;99.90
17172;DHT22;8701;50.150;8.756;2023-05-08T23:20:08;16.60;99.90
17172;DHT22;8701;50.150;8.756;2023-05-08T23:24:10;16.60;99.90
17172;DHT22;8701;50.150;8.756;2023-05-08T23:28:12;16.60;99.90
17172;DHT22;8701;50.150;8.756;2023-05-08T23:32:16;16.60;99.90
17172;DHT22;8701;50.150;8.756;2023-05-08T23:36:18;16.60;99.90
17172;DHT22;8701;50.150;8.756;2023-05-08T23:40:20;16.60;99.90
17172;DHT22;8701;50.150;8.756;2023-05-08T23:44:23;16.60;99.90
17172;DHT22;8701;50.150;8.756;2023-05-08T23:48:26;16.60;99.90
17172;DHT22;8701;50.150;8.756;2023-05-08T23:52:28;16.60;99.90
17172;DHT22;8701;50.150;8.756;2023-05-08T23:56:31;16.60;99.90
